sensor_id;sensor_type;location;lat;lon;timestamp;pressure;altitude;pressure_sealevel;temperature;humidity
30110;BME280;14965;50.660;13.226;2023-07-29T00:02:22;94456.31;;;16.66;100.00
30110;BME280;14965;50.660;13.226;2023-07-29T00:04:48;94451.00;;;16.68;100.00
30110;BME280;14965;50.660;13.226;2023-07-29T00:07:15;94452.03;;;16.71;100.00
30110;BME280;14965;50.660;13.226;2023-07-29T00:09:41;94452.63;;;16.75;100.00
30110;BME280;14965;50.660;13.226;2023-07-29T00:12:07;94449.84;;;16.75;100.00
30110;BME280;14965;50.660;13.226;2023-07-29T00:14:33;94443.78;;;16.76;100.00
30110;BME280;14965;50.660;13.226;2023-07-29T00:16:59;94443.56;;;16.80;100.00
30110;BME280;14965;50.660;13.226;2023-07-29T00:19:25;94446.34;;;16.80;100.00
30110;BME280;14965;50.660;13.226;2023-07-29T00:21:51;94438.53;;;16.84;100.00
30110;BME280;14965;50.660;13.226;2023-07-29T00:24:18;94444.41;;;16.86;100.00
30110;BME280;14965;50.660;13.226;2023-07-29T00:26:44;94441.06;;;16.82;100.00
30110;BME280;14965;50.660;13.226;2023-07-29T00:29:10;94443.09;;;16.81;100.00
30110;BME280;14965;50.660;13.226;2023-07-29T00:31:36;94442.59;;;16.83;100.00
30110;BME280;14965;50.660;13.226;2023-07-29T00:34:01;94436.25;;;16.82;100.00
30110;BME280;14965;50.660;13.226;2023-07-29T00:36:27;94428.38;;;16.81;100.00
30110;BME280;14965;50.660;13.226;2023-07-29T00:38:53;94429.91;;;16.82;100.00
30110;BME280;14965;50.660;13.226;2023-07-29T00:41:22;94428.13;;;16.84;100.00
30110;BME280;14965;50.660;13.226;2023-07-29T00:43:48;94426.13;;;16.85;100.00
30110;BME280;14965;50.660;13.226;2023-07-29T00:46:15;94414.47;;;16.86;100.00
30110;BME280;14965;50.660;13.226;2023-07-29T00:48:41;94414.75;;;16.88;100.00
30110;BME280;14965;50.660;13.226;2023-07-29T00:51:07;94412.75;;;16.89;100.00
30110;BME280;14965;50.660;13.226;2023-07-29T00:53:33;94415.03;;;16.90;100.00
30110;BME280;14965;50.660;13.226;2023-07-29T00:56:00;94419.84;;;16.90;100.00
30110;BME280;14965;50.660;13.226;2023-07-29T00:58:27;94406.66;;;16.90;100.00
30110;BME280;14965;50.660;13.226;2023-07-29T01:00:54;94402.81;;;16.88;100.00
30110;BME280;14965;50.660;13.226;2023-07-29T01:03:21;94404.09;;;16.87;100.00
30110;BME280;14965;50.660;13.226;2023-07-29T01:06:01;94412.19;;;16.85;100.00
30110;BME280;14965;50.660;13.226;2023-07-29T01:08:38;94404.81;;;16.82;100.00
30110;BME280;14965;50.660;13.226;2023-07-29T01:11:30;94403.75;;;16.79;100.00
30110;BME280;14965;50.660;13.226;2023-07-29T01:14:07;94405.50;;;16.77;100.00
30110;BME280;14965;50.660;13.226;2023-07-29T01:16:40;94402.63;;;16.71;100.00
30110;BME280;14965;50.660;13.226;2023-07-29T01:19:23;94401.28;;;16.66;100.00
30110;BME280;14965;50.660;13.226;2023-07-29T01:21:52;94395.94;;;16.63;100.00
30110;BME280;14965;50.660;13.226;2023-07-29T01:24:19;94401.72;;;16.59;100.00
30110;BME280;14965;50.660;13.226;2023-07-29T01:26:45;94400.91;;;16.53;100.00
30110;BME280;14965;50.660;13.226;2023-07-29T01:29:11;94392.47;;;16.48;100.00
30110;BME280;14965;50.660;13.226;2023-07-29T01:31:43;94394.97;;;16.46;100.00
30110;BME280;14965;50.660;13.226;2023-07-29T01:34:17;94394.72;;;16.43;100.00
30110;BME280;14965;50.660;13.226;2023-07-29T01:36:51;94388.09;;;16.41;100.00
30110;BME280;14965;50.660;13.226;2023-07-29T01:39:21;94383.78;;;16.40;100.00
30110;BME280;14965;50.660;13.226;2023-07-29T01:41:49;94380.44;;;16.36;100.00
30110;BME280;14965;50.660;13.226;2023-07-29T01:44:17;94380.63;;;16.32;100.00
30110;BME280;14965;50.660;13.226;2023-07-29T01:46:44;94384.38;;;16.29;100.00
30110;BME280;14965;50.660;13.226;2023-07-29T01:49:10;94380.56;;;16.27;100.00
30110;BME280;14965;50.660;13.226;2023-07-29T01:51:36;94379.53;;;16.24;100.00
30110;BME280;14965;50.660;13.226;2023-07-29T01:54:02;94376.72;;;16.24;100.00
30110;BME280;14965;50.660;13.226;2023-07-29T01:56:29;94383.06;;;16.25;100.00
30110;BME280;14965;50.660;13.226;2023-07-29T01:58:55;94385.84;;;16.25;100.00
30110;BME280;14965;50.660;13.226;2023-07-29T02:01:21;94381.03;;;16.25;100.00
30110;BME280;14965;50.660;13.226;2023-07-29T02:03:47;94382.31;;;16.24;100.00
30110;BME280;14965;50.660;13.226;2023-07-29T02:06:13;94384.59;;;16.26;100.00
30110;BME280;14965;50.660;13.226;2023-07-29T02:08:39;94382.09;;;16.28;100.00
30110;BME280;14965;50.660;13.226;2023-07-29T02:11:04;94387.19;;;16.29;100.00
30110;BME280;14965;50.660;13.226;2023-07-29T02:13:32;94381.13;;;16.31;100.00
30110;BME280;14965;50.660;13.226;2023-07-29T02:15:58;94389.75;;;16.33;100.00
30110;BME280;14965;50.660;13.226;2023-07-29T02:18:23;94396.09;;;16.33;100.00
30110;BME280;14965;50.660;13.226;2023-07-29T02:20:49;94390.50;;;16.33;100.00
30110;BME280;14965;50.660;13.226;2023-07-29T02:23:15;94387.72;;;16.33;100.00
30110;BME280;14965;50.660;13.226;2023-07-29T02:25:41;94390.50;;;16.33;100.00
30110;BME280;14965;50.660;13.226;2023-07-29T02:28:07;94389.25;;;16.34;100.00
30110;BME280;14965;50.660;13.226;2023-07-29T02:30:34;94403.41;;;16.31;100.00
30110;BME280;14965;50.660;13.226;2023-07-29T02:33:00;94397.56;;;16.29;100.00
30110;BME280;14965;50.660;13.226;2023-07-29T02:35:26;94397.28;;;16.27;100.00
30110;BME280;14965;50.660;13.226;2023-07-29T02:37:52;94404.88;;;16.26;100.00
30110;BME280;14965;50.660;13.226;2023-07-29T02:40:18;94411.50;;;16.29;100.00
30110;BME280;14965;50.660;13.226;2023-07-29T02:42:44;94403.41;;;16.31;100.00
30110;BME280;14965;50.660;13.226;2023-07-29T02:45:10;94406.47;;;16.33;100.00
30110;BME280;14965;50.660;13.226;2023-07-29T02:47:38;94402.44;;;16.34;100.00
30110;BME280;14965;50.660;13.226;2023-07-29T02:50:05;94405.50;;;16.36;100.00
30110;BME280;14965;50.660;13.226;2023-07-29T02:52:31;94403.75;;;16.38;100.00
30110;BME280;14965;50.660;13.226;2023-07-29T02:54:56;94420.75;;;16.40;100.00
30110;BME280;14965;50.660;13.226;2023-07-29T02:57:22;94406.06;;;16.40;100.00
30110;BME280;14965;50.660;13.226;2023-07-29T02:59:48;94409.88;;;16.42;100.00
30110;BME280;14965;50.660;13.226;2023-07-29T03:02:14;94403.84;;;16.44;100.00
30110;BME280;14965;50.660;13.226;2023-07-29T03:04:41;94408.34;;;16.41;100.00
30110;BME280;14965;50.660;13.226;2023-07-29T03:07:07;94400.75;;;16.42;100.00
30110;BME280;14965;50.660;13.226;2023-07-29T03:09:33;94404.31;;;16.42;100.00
30110;BME280;14965;50.660;13.226;2023-07-29T03:11:59;94403.53;;;16.42;100.00
30110;BME280;14965;50.660;13.226;2023-07-29T03:14:25;94408.09;;;16.39;100.00
30110;BME280;14965;50.660;13.226;2023-07-29T03:16:51;94401.47;;;16.37;100.00
30110;BME280;14965;50.660;13.226;2023-07-29T03:19:17;94398.16;;;16.38;100.00
30110;BME280;14965;50.660;13.226;2023-07-29T03:21:44;94398.97;;;16.39;100.00
30110;BME280;14965;50.660;13.226;2023-07-29T03:24:10;94399.72;;;16.39;100.00
30110;BME280;14965;50.660;13.226;2023-07-29T03:26:36;94394.63;;;16.38;100.00
30110;BME280;14965;50.660;13.226;2023-07-29T03:29:02;94401.25;;;16.40;100.00
30110;BME280;14965;50.660;13.226;2023-07-29T03:31:28;94402.00;;;16.41;100.00
30110;BME280;14965;50.660;13.226;2023-07-29T03:33:53;94395.19;;;16.42;100.00
30110;BME280;14965;50.660;13.226;2023-07-29T03:36:21;94401.03;;;16.44;100.00
30110;BME280;14965;50.660;13.226;2023-07-29T03:38:48;94401.03;;;16.44;100.00
30110;BME280;14965;50.660;13.226;2023-07-29T03:41:14;94395.47;;;16.44;100.00
30110;BME280;14965;50.660;13.226;2023-07-29T03:43:40;94401.31;;;16.46;100.00
30110;BME280;14965;50.660;13.226;2023-07-29T03:46:06;94398.81;;;16.48;100.00
30110;BME280;14965;50.660;13.226;2023-07-29T03:48:32;94392.28;;;16.51;100.00
30110;BME280;14965;50.660;13.226;2023-07-29T03:50:58;94402.41;;;16.54;100.00
30110;BME280;14965;50.660;13.226;2023-07-29T03:53:23;94403.47;;;16.57;100.00
30110;BME280;14965;50.660;13.226;2023-07-29T03:55:51;94408.34;;;16.62;100.00
30110;BME280;14965;50.660;13.226;2023-07-29T03:58:17;94399.78;;;16.65;100.00
30110;BME280;14965;50.660;13.226;2023-07-29T04:00:43;94396.28;;;16.71;100.00
30110;BME280;14965;50.660;13.226;2023-07-29T04:03:08;94402.44;;;16.75;100.00
30110;BME280;14965;50.660;13.226;2023-07-29T04:05:34;94397.41;;;16.79;100.00
30110;BME280;14965;50.660;13.226;2023-07-29T04:08:00;94408.84;;;16.81;100.00
30110;BME280;14965;50.660;13.226;2023-07-29T04:10:26;94401.03;;;16.85;100.00
30110;BME280;14965;50.660;13.226;2023-07-29T04:12:53;94406.13;;;16.86;100.00
30110;BME280;14965;50.660;13.226;2023-07-29T04:15:19;94414.75;;;16.88;100.00
30110;BME280;14965;50.660;13.226;2023-07-29T04:17:45;94407.44;;;16.91;100.00
30110;BME280;14965;50.660;13.226;2023-07-29T04:20:12;94402.63;;;16.91;100.00
30110;BME280;14965;50.660;13.226;2023-07-29T04:22:37;94400.59;;;16.92;100.00
30110;BME280;14965;50.660;13.226;2023-07-29T04:25:05;94406.16;;;16.92;100.00
30110;BME280;14965;50.660;13.226;2023-07-29T04:27:31;94403.38;;;16.92;100.00
30110;BME280;14965;50.660;13.226;2023-07-29T04:29:58;94402.13;;;16.93;100.00
30110;BME280;14965;50.660;13.226;2023-07-29T04:32:24;94406.44;;;16.94;100.00
30110;BME280;14965;50.660;13.226;2023-07-29T04:34:50;94403.91;;;16.96;100.00
30110;BME280;14965;50.660;13.226;2023-07-29T04:37:16;94401.91;;;16.97;100.00
30110;BME280;14965;50.660;13.226;2023-07-29T04:39:42;94401.41;;;16.98;100.00
30110;BME280;14965;50.660;13.226;2023-07-29T04:42:08;94398.13;;;17.00;100.00
30110;BME280;14965;50.660;13.226;2023-07-29T04:44:34;94400.72;;;17.03;100.00
30110;BME280;14965;50.660;13.226;2023-07-29T04:47:02;94406.84;;;17.07;100.00
30110;BME280;14965;50.660;13.226;2023-07-29T04:49:28;94405.09;;;17.10;100.00
30110;BME280;14965;50.660;13.226;2023-07-29T04:51:54;94408.44;;;17.14;100.00
30110;BME280;14965;50.660;13.226;2023-07-29T04:54:19;94405.41;;;17.17;100.00
30110;BME280;14965;50.660;13.226;2023-07-29T04:56:45;94398.34;;;17.22;100.00
30110;BME280;14965;50.660;13.226;2023-07-29T04:59:11;94395.31;;;17.26;100.00
30110;BME280;14965;50.660;13.226;2023-07-29T05:01:37;94396.16;;;17.32;99.96
30110;BME280;14965;50.660;13.226;2023-07-29T05:04:05;94401.56;;;17.41;99.38
30110;BME280;14965;50.660;13.226;2023-07-29T05:06:31;94397.59;;;17.53;98.76
30110;BME280;14965;50.660;13.226;2023-07-29T05:08:57;94386.00;;;17.66;98.01
30110;BME280;14965;50.660;13.226;2023-07-29T05:11:23;94400.09;;;17.77;97.33
30110;BME280;14965;50.660;13.226;2023-07-29T05:13:49;94388.50;;;17.90;96.25
30110;BME280;14965;50.660;13.226;2023-07-29T05:16:15;94388.09;;;18.08;94.52
30110;BME280;14965;50.660;13.226;2023-07-29T05:18:41;94382.88;;;18.33;93.16
30110;BME280;14965;50.660;13.226;2023-07-29T05:21:08;94372.38;;;18.71;90.83
30110;BME280;14965;50.660;13.226;2023-07-29T05:23:34;94371.19;;;19.22;89.16
30110;BME280;14965;50.660;13.226;2023-07-29T05:26:00;94375.03;;;20.73;79.54
30110;BME280;14965;50.660;13.226;2023-07-29T05:28:25;94362.38;;;21.07;77.18
30110;BME280;14965;50.660;13.226;2023-07-29T05:30:52;94366.53;;;20.95;77.23
30110;BME280;14965;50.660;13.226;2023-07-29T05:33:18;94378.63;;;20.73;78.33
30110;BME280;14965;50.660;13.226;2023-07-29T05:35:44;94368.50;;;20.53;78.92
30110;BME280;14965;50.660;13.226;2023-07-29T05:38:11;94370.59;;;20.36;79.20
30110;BME280;14965;50.660;13.226;2023-07-29T05:40:37;94371.09;;;20.40;79.66
30110;BME280;14965;50.660;13.226;2023-07-29T05:43:03;94364.06;;;21.87;75.29
30110;BME280;14965;50.660;13.226;2023-07-29T05:45:29;94355.97;;;24.10;64.23
30110;BME280;14965;50.660;13.226;2023-07-29T05:47:54;94355.72;;;26.12;55.83
30110;BME280;14965;50.660;13.226;2023-07-29T05:50:20;94365.94;;;26.15;53.29
30110;BME280;14965;50.660;13.226;2023-07-29T05:52:46;94363.19;;;25.25;55.71
30110;BME280;14965;50.660;13.226;2023-07-29T05:55:13;94361.44;;;24.48;59.03
30110;BME280;14965;50.660;13.226;2023-07-29T05:57:39;94372.06;;;23.70;60.64
30110;BME280;14965;50.660;13.226;2023-07-29T06:00:06;94383.59;;;22.97;63.61
30110;BME280;14965;50.660;13.226;2023-07-29T06:02:32;94379.97;;;22.34;66.37
30110;BME280;14965;50.660;13.226;2023-07-29T06:04:58;94371.00;;;21.81;68.12
30110;BME280;14965;50.660;13.226;2023-07-29T06:07:24;94367.97;;;21.49;69.55
30110;BME280;14965;50.660;13.226;2023-07-29T06:09:50;94382.41;;;21.28;70.83
30110;BME280;14965;50.660;13.226;2023-07-29T06:12:17;94384.03;;;21.12;72.47
30110;BME280;14965;50.660;13.226;2023-07-29T06:14:43;94392.84;;;20.86;72.74
30110;BME280;14965;50.660;13.226;2023-07-29T06:17:09;94390.69;;;20.51;74.06
30110;BME280;14965;50.660;13.226;2023-07-29T06:19:35;94391.03;;;20.20;76.43
30110;BME280;14965;50.660;13.226;2023-07-29T06:22:01;94390.31;;;19.97;77.83
30110;BME280;14965;50.660;13.226;2023-07-29T06:24:27;94388.28;;;19.80;78.44
30110;BME280;14965;50.660;13.226;2023-07-29T06:26:52;94393.13;;;19.80;79.45
30110;BME280;14965;50.660;13.226;2023-07-29T06:29:20;94386.03;;;19.73;79.93
30110;BME280;14965;50.660;13.226;2023-07-29T06:31:45;94387.03;;;19.70;80.22
30110;BME280;14965;50.660;13.226;2023-07-29T06:34:11;94381.50;;;20.56;79.47
30110;BME280;14965;50.660;13.226;2023-07-29T06:36:37;94376.44;;;22.52;71.53
30110;BME280;14965;50.660;13.226;2023-07-29T06:39:03;94370.25;;;23.99;63.15
30110;BME280;14965;50.660;13.226;2023-07-29T06:41:29;94364.78;;;24.73;59.84
30110;BME280;14965;50.660;13.226;2023-07-29T06:43:55;94365.53;;;24.74;59.03
30110;BME280;14965;50.660;13.226;2023-07-29T06:46:22;94365.44;;;24.40;59.26
30110;BME280;14965;50.660;13.226;2023-07-29T06:48:48;94356.44;;;23.82;61.76
30110;BME280;14965;50.660;13.226;2023-07-29T06:51:14;94354.25;;;23.43;63.58
30110;BME280;14965;50.660;13.226;2023-07-29T06:53:40;94354.84;;;23.36;62.18
30110;BME280;14965;50.660;13.226;2023-07-29T06:56:06;94367.59;;;23.24;63.30
30110;BME280;14965;50.660;13.226;2023-07-29T06:58:32;94368.03;;;23.28;64.05
30110;BME280;14965;50.660;13.226;2023-07-29T07:00:58;94365.47;;;23.30;63.78
30110;BME280;14965;50.660;13.226;2023-07-29T07:03:25;94370.09;;;23.46;63.76
30110;BME280;14965;50.660;13.226;2023-07-29T07:05:51;94380.31;;;23.11;63.22
30110;BME280;14965;50.660;13.226;2023-07-29T07:08:17;94366.47;;;22.51;65.48
30110;BME280;14965;50.660;13.226;2023-07-29T07:10:43;94368.59;;;21.96;68.09
30110;BME280;14965;50.660;13.226;2023-07-29T07:13:09;94362.31;;;22.09;69.43
30110;BME280;14965;50.660;13.226;2023-07-29T07:15:34;94350.91;;;22.26;66.82
30110;BME280;14965;50.660;13.226;2023-07-29T07:18:00;94351.56;;;22.37;66.83
30110;BME280;14965;50.660;13.226;2023-07-29T07:20:28;94349.34;;;22.93;66.46
30110;BME280;14965;50.660;13.226;2023-07-29T07:22:54;94353.28;;;23.22;65.20
30110;BME280;14965;50.660;13.226;2023-07-29T07:25:20;94348.59;;;23.43;65.01
30110;BME280;14965;50.660;13.226;2023-07-29T07:27:46;94339.25;;;24.26;61.89
30110;BME280;14965;50.660;13.226;2023-07-29T07:30:12;94335.16;;;24.67;59.42
30110;BME280;14965;50.660;13.226;2023-07-29T07:32:38;94335.38;;;24.55;58.16
30110;BME280;14965;50.660;13.226;2023-07-29T07:35:04;94348.69;;;24.15;59.12
30110;BME280;14965;50.660;13.226;2023-07-29T07:37:31;94340.75;;;23.55;60.59
30110;BME280;14965;50.660;13.226;2023-07-29T07:39:57;94329.69;;;23.57;62.44
30110;BME280;14965;50.660;13.226;2023-07-29T07:42:23;94329.66;;;23.76;62.03
30110;BME280;14965;50.660;13.226;2023-07-29T07:44:49;94328.25;;;23.82;61.06
30110;BME280;14965;50.660;13.226;2023-07-29T07:47:15;94324.84;;;24.29;59.88
30110;BME280;14965;50.660;13.226;2023-07-29T07:49:41;94322.91;;;24.51;58.79
30110;BME280;14965;50.660;13.226;2023-07-29T07:52:07;94320.47;;;24.28;59.46
30110;BME280;14965;50.660;13.226;2023-07-29T07:54:34;94322.28;;;23.86;60.37
30110;BME280;14965;50.660;13.226;2023-07-29T07:57:00;94334.03;;;23.07;61.87
30110;BME280;14965;50.660;13.226;2023-07-29T07:59:26;94326.88;;;22.87;63.25
30110;BME280;14965;50.660;13.226;2023-07-29T08:01:52;94331.72;;;22.86;65.84
30110;BME280;14965;50.660;13.226;2023-07-29T08:04:18;94324.63;;;23.04;65.77
30110;BME280;14965;50.660;13.226;2023-07-29T08:06:44;94321.84;;;22.99;63.45
30110;BME280;14965;50.660;13.226;2023-07-29T08:09:09;94318.19;;;22.85;64.56
30110;BME280;14965;50.660;13.226;2023-07-29T08:11:37;94318.22;;;23.04;64.54
30110;BME280;14965;50.660;13.226;2023-07-29T08:14:03;94306.34;;;23.43;63.29
30110;BME280;14965;50.660;13.226;2023-07-29T08:16:29;94300.41;;;23.60;60.54
30110;BME280;14965;50.660;13.226;2023-07-29T08:18:54;94307.13;;;24.02;61.58
30110;BME280;14965;50.660;13.226;2023-07-29T08:21:20;94303.16;;;24.38;61.07
30110;BME280;14965;50.660;13.226;2023-07-29T08:23:46;94303.47;;;24.47;58.69
30110;BME280;14965;50.660;13.226;2023-07-29T08:26:12;94305.31;;;24.58;58.86
30110;BME280;14965;50.660;13.226;2023-07-29T08:28:40;94308.97;;;24.66;57.98
30110;BME280;14965;50.660;13.226;2023-07-29T08:31:06;94308.56;;;24.49;57.12
30110;BME280;14965;50.660;13.226;2023-07-29T08:33:33;94305.84;;;24.30;58.68
30110;BME280;14965;50.660;13.226;2023-07-29T08:35:59;94304.66;;;24.12;60.27
30110;BME280;14965;50.660;13.226;2023-07-29T08:38:25;94316.13;;;23.88;61.63
30110;BME280;14965;50.660;13.226;2023-07-29T08:40:58;94316.75;;;23.67;61.47
30110;BME280;14965;50.660;13.226;2023-07-29T08:43:29;94311.03;;;23.22;62.67
30110;BME280;14965;50.660;13.226;2023-07-29T08:45:57;94320.56;;;22.81;64.86
30110;BME280;14965;50.660;13.226;2023-07-29T08:48:31;94318.25;;;22.42;65.26
30110;BME280;14965;50.660;13.226;2023-07-29T08:50:59;94317.81;;;22.56;65.97
30110;BME280;14965;50.660;13.226;2023-07-29T08:53:27;94320.47;;;22.86;64.04
30110;BME280;14965;50.660;13.226;2023-07-29T08:55:54;94323.22;;;23.11;64.38
30110;BME280;14965;50.660;13.226;2023-07-29T08:58:20;94321.00;;;23.23;64.36
30110;BME280;14965;50.660;13.226;2023-07-29T09:00:47;94324.44;;;23.48;65.53
30110;BME280;14965;50.660;13.226;2023-07-29T09:03:15;94320.16;;;23.60;59.39
30110;BME280;14965;50.660;13.226;2023-07-29T09:05:41;94330.31;;;23.95;58.87
30110;BME280;14965;50.660;13.226;2023-07-29T09:08:07;94318.84;;;24.06;56.29
30110;BME280;14965;50.660;13.226;2023-07-29T09:10:36;94324.16;;;24.36;55.87
30110;BME280;14965;50.660;13.226;2023-07-29T09:13:02;94317.44;;;24.26;55.64
30110;BME280;14965;50.660;13.226;2023-07-29T09:15:29;94317.75;;;23.83;55.72
30110;BME280;14965;50.660;13.226;2023-07-29T09:17:56;94317.09;;;23.90;56.97
30110;BME280;14965;50.660;13.226;2023-07-29T09:20:26;94313.41;;;23.95;58.48
30110;BME280;14965;50.660;13.226;2023-07-29T09:22:54;94306.72;;;24.25;56.88
30110;BME280;14965;50.660;13.226;2023-07-29T09:25:24;94304.97;;;24.48;55.81
30110;BME280;14965;50.660;13.226;2023-07-29T09:27:50;94307.69;;;24.67;56.97
30110;BME280;14965;50.660;13.226;2023-07-29T09:30:16;94308.00;;;24.64;55.00
30110;BME280;14965;50.660;13.226;2023-07-29T09:32:43;94306.47;;;24.76;56.13
30110;BME280;14965;50.660;13.226;2023-07-29T09:35:11;94304.44;;;24.97;57.67
30110;BME280;14965;50.660;13.226;2023-07-29T09:37:39;94296.13;;;25.26;55.60
30110;BME280;14965;50.660;13.226;2023-07-29T09:40:06;94305.50;;;25.07;53.81
30110;BME280;14965;50.660;13.226;2023-07-29T09:42:39;94300.38;;;24.72;54.97
30110;BME280;14965;50.660;13.226;2023-07-29T09:45:06;94302.59;;;24.39;56.75
30110;BME280;14965;50.660;13.226;2023-07-29T09:47:32;94299.53;;;24.10;57.97
30110;BME280;14965;50.660;13.226;2023-07-29T09:49:59;94299.50;;;23.71;59.19
30110;BME280;14965;50.660;13.226;2023-07-29T09:52:25;94314.06;;;23.24;60.26
30110;BME280;14965;50.660;13.226;2023-07-29T09:54:54;94317.22;;;23.20;61.17
30110;BME280;14965;50.660;13.226;2023-07-29T09:57:20;94301.72;;;23.27;62.00
30110;BME280;14965;50.660;13.226;2023-07-29T09:59:54;94304.53;;;23.27;61.71
30110;BME280;14965;50.660;13.226;2023-07-29T10:02:21;94309.47;;;23.07;62.96
30110;BME280;14965;50.660;13.226;2023-07-29T10:04:47;94307.41;;;23.08;63.65
30110;BME280;14965;50.660;13.226;2023-07-29T10:07:15;94319.84;;;22.99;63.63
30110;BME280;14965;50.660;13.226;2023-07-29T10:09:43;94305.13;;;23.06;62.45
30110;BME280;14965;50.660;13.226;2023-07-29T10:12:13;94318.66;;;22.89;61.46
30110;BME280;14965;50.660;13.226;2023-07-29T10:14:40;94323.38;;;22.81;63.15
30110;BME280;14965;50.660;13.226;2023-07-29T10:17:07;94314.31;;;22.69;63.82
30110;BME280;14965;50.660;13.226;2023-07-29T10:19:35;94308.13;;;22.52;64.28
30110;BME280;14965;50.660;13.226;2023-07-29T10:22:04;94298.94;;;22.08;64.59
30110;BME280;14965;50.660;13.226;2023-07-29T10:24:33;94305.13;;;22.01;66.57
30110;BME280;14965;50.660;13.226;2023-07-29T10:27:01;94303.97;;;22.15;65.54
30110;BME280;14965;50.660;13.226;2023-07-29T10:29:32;94296.47;;;22.23;65.16
30110;BME280;14965;50.660;13.226;2023-07-29T10:32:04;94301.78;;;22.02;65.88
30110;BME280;14965;50.660;13.226;2023-07-29T10:34:32;94293.19;;;22.19;65.64
30110;BME280;14965;50.660;13.226;2023-07-29T10:36:59;94288.44;;;22.33;64.01
30110;BME280;14965;50.660;13.226;2023-07-29T10:39:26;94295.59;;;22.09;62.15
30110;BME280;14965;50.660;13.226;2023-07-29T10:41:57;94299.22;;;22.04;64.40
30110;BME280;14965;50.660;13.226;2023-07-29T10:44:50;94297.75;;;22.22;65.12
30110;BME280;14965;50.660;13.226;2023-07-29T10:47:19;94296.78;;;22.20;62.91
30110;BME280;14965;50.660;13.226;2023-07-29T10:49:48;94305.81;;;22.07;63.48
30110;BME280;14965;50.660;13.226;2023-07-29T10:52:16;94319.38;;;21.84;64.86
30110;BME280;14965;50.660;13.226;2023-07-29T10:54:43;94316.72;;;21.67;67.05
30110;BME280;14965;50.660;13.226;2023-07-29T10:57:13;94323.50;;;21.53;68.92
30110;BME280;14965;50.660;13.226;2023-07-29T10:59:39;94329.41;;;21.49;69.15
30110;BME280;14965;50.660;13.226;2023-07-29T11:02:17;94324.69;;;21.33;71.22
30110;BME280;14965;50.660;13.226;2023-07-29T11:04:46;94321.22;;;21.16;71.29
30110;BME280;14965;50.660;13.226;2023-07-29T11:10:04;94322.47;;;21.14;72.33
30110;BME280;14965;50.660;13.226;2023-07-29T11:12:42;94315.81;;;21.18;72.86
30110;BME280;14965;50.660;13.226;2023-07-29T11:15:15;94314.75;;;21.26;73.56
30110;BME280;14965;50.660;13.226;2023-07-29T11:17:45;94317.50;;;21.37;73.83
30110;BME280;14965;50.660;13.226;2023-07-29T11:20:12;94314.91;;;21.39;73.64
30110;BME280;14965;50.660;13.226;2023-07-29T11:22:39;94323.41;;;21.28;73.98
30110;BME280;14965;50.660;13.226;2023-07-29T11:25:08;94330.72;;;21.07;74.60
30110;BME280;14965;50.660;13.226;2023-07-29T11:27:34;94331.34;;;20.88;74.97
30110;BME280;14965;50.660;13.226;2023-07-29T11:30:03;94328.09;;;20.79;76.03
30110;BME280;14965;50.660;13.226;2023-07-29T11:32:31;94327.81;;;20.77;76.98
30110;BME280;14965;50.660;13.226;2023-07-29T11:35:02;94328.09;;;20.73;77.32
30110;BME280;14965;50.660;13.226;2023-07-29T11:37:28;94333.03;;;20.61;77.01
30110;BME280;14965;50.660;13.226;2023-07-29T11:39:54;94325.09;;;20.66;78.20
30110;BME280;14965;50.660;13.226;2023-07-29T11:42:21;94325.81;;;20.72;78.09
30110;BME280;14965;50.660;13.226;2023-07-29T11:44:47;94325.41;;;20.98;77.72
30110;BME280;14965;50.660;13.226;2023-07-29T11:47:13;94311.56;;;21.11;77.46
30110;BME280;14965;50.660;13.226;2023-07-29T11:49:40;94319.78;;;21.39;77.35
30110;BME280;14965;50.660;13.226;2023-07-29T11:52:09;94316.78;;;21.61;76.76
30110;BME280;14965;50.660;13.226;2023-07-29T11:54:37;94314.09;;;21.75;74.76
30110;BME280;14965;50.660;13.226;2023-07-29T11:57:06;94312.06;;;21.75;73.05
30110;BME280;14965;50.660;13.226;2023-07-29T11:59:33;94310.84;;;21.65;73.30
30110;BME280;14965;50.660;13.226;2023-07-29T12:02:00;94299.63;;;21.65;72.74
30110;BME280;14965;50.660;13.226;2023-07-29T12:04:26;94303.34;;;21.79;74.30
30110;BME280;14965;50.660;13.226;2023-07-29T12:06:52;94288.63;;;21.92;73.80
30110;BME280;14965;50.660;13.226;2023-07-29T12:09:20;94301.28;;;21.79;72.49
30110;BME280;14965;50.660;13.226;2023-07-29T12:11:46;94291.56;;;21.80;72.38
30110;BME280;14965;50.660;13.226;2023-07-29T12:14:12;94292.09;;;21.79;73.03
30110;BME280;14965;50.660;13.226;2023-07-29T12:16:41;94290.03;;;21.79;72.02
30110;BME280;14965;50.660;13.226;2023-07-29T12:19:08;94291.19;;;21.65;71.53
30110;BME280;14965;50.660;13.226;2023-07-29T12:24:08;94293.91;;;21.10;74.60
30110;BME280;14965;50.660;13.226;2023-07-29T12:26:37;94290.88;;;21.08;75.07
30110;BME280;14965;50.660;13.226;2023-07-29T12:29:15;94273.47;;;21.16;75.89
30110;BME280;14965;50.660;13.226;2023-07-29T12:31:42;94275.06;;;21.11;76.68
30110;BME280;14965;50.660;13.226;2023-07-29T12:34:16;94272.53;;;21.07;79.87
30110;BME280;14965;50.660;13.226;2023-07-29T12:36:47;94269.50;;;21.00;82.80
30110;BME280;14965;50.660;13.226;2023-07-29T12:39:18;94260.81;;;21.03;82.38
30110;BME280;14965;50.660;13.226;2023-07-29T12:41:46;94251.03;;;21.16;83.24
30110;BME280;14965;50.660;13.226;2023-07-29T12:44:12;94247.88;;;21.25;84.59
30110;BME280;14965;50.660;13.226;2023-07-29T12:46:38;94241.13;;;21.39;83.05
30110;BME280;14965;50.660;13.226;2023-07-29T12:49:04;94227.31;;;21.41;83.79
30110;BME280;14965;50.660;13.226;2023-07-29T12:51:30;94224.50;;;21.41;83.23